Terminal Aerodrome Forecast
Issued by NWS

Current Version | Previous Version | Text Only | Print | Product List | Glossary On
Versions: 1 2 3 4 5 6 7 8 9 10 11 12 13 14 15 16 17 18 19 20 21 22 23 24 25 26
000
FTUS41 KBUF 271700
TAFIAG
TAF
KIAG 271735Z 2718/2818 32010KT P6SM VCSH SCT020 OVC035
      TEMPO 2718/2720 BKN020
     FM272300 32006KT P6SM BKN035
     FM280900 29004KT P6SM SCT025 BKN050=

USA.gov is the U.S. government's official web portal to all federal, state and local government web resources and services.